createdAt,value
2018-10-12T00:01:18.538Z,99.90
2018-10-12T00:03:47.646Z,99.90
2018-10-12T00:06:16.831Z,99.90
2018-10-12T00:08:46.086Z,99.90
2018-10-12T00:11:15.410Z,99.90
2018-10-12T00:13:44.807Z,99.90
2018-10-12T00:16:13.978Z,99.90
2018-10-12T00:18:43.177Z,99.90
2018-10-12T00:21:12.473Z,99.90
2018-10-12T00:23:41.639Z,99.90
2018-10-12T00:26:10.781Z,99.90
2018-10-12T00:28:39.991Z,99.90
2018-10-12T00:31:09.140Z,99.90
2018-10-12T00:33:38.423Z,99.90
2018-10-12T00:36:07.767Z,99.90
2018-10-12T00:38:37.086Z,99.90
2018-10-12T00:41:06.442Z,99.90
2018-10-12T00:43:35.609Z,99.90
2018-10-12T00:46:04.917Z,99.90
2018-10-12T00:48:34.124Z,99.90
2018-10-12T00:51:03.355Z,99.90
2018-10-12T00:53:33.338Z,99.90
2018-10-12T00:56:02.546Z,99.90
2018-10-12T00:58:31.665Z,99.90
2018-10-12T01:01:00.874Z,99.90
2018-10-12T01:03:30.158Z,99.90
2018-10-12T01:05:59.776Z,99.90
2018-10-12T01:08:29.090Z,99.90
2018-10-12T01:10:58.441Z,99.90
2018-10-12T01:13:27.598Z,99.90
2018-10-12T01:15:56.921Z,99.90
2018-10-12T01:18:26.215Z,99.90
2018-10-12T01:20:55.433Z,99.90
2018-10-12T01:23:24.794Z,99.90
2018-10-12T01:25:54.031Z,99.90
2018-10-12T01:28:23.297Z,99.90
2018-10-12T01:30:52.486Z,99.90
2018-10-12T01:33:21.825Z,99.90
2018-10-12T01:35:51.051Z,99.90
2018-10-12T01:38:20.414Z,99.90
2018-10-12T01:40:49.695Z,99.90
2018-10-12T01:43:18.978Z,99.90
2018-10-12T01:45:48.185Z,99.90
2018-10-12T01:48:17.389Z,99.90
2018-10-12T01:50:46.777Z,99.90
2018-10-12T01:53:16.034Z,99.90
2018-10-12T01:55:45.301Z,99.90
2018-10-12T01:58:15.659Z,99.90
2018-10-12T02:00:44.818Z,99.90
2018-10-12T02:03:14.083Z,99.90
2018-10-12T02:05:43.293Z,99.90
2018-10-12T02:08:12.586Z,99.90
2018-10-12T02:10:41.722Z,99.90
2018-10-12T02:13:10.901Z,99.90
2018-10-12T02:15:41.116Z,99.90
2018-10-12T02:18:10.321Z,99.90
2018-10-12T02:20:39.489Z,99.90
2018-10-12T02:23:08.702Z,99.90
2018-10-12T02:25:37.885Z,99.90
2018-10-12T02:28:07.207Z,99.90
2018-10-12T02:30:36.499Z,99.90
2018-10-12T02:33:05.757Z,99.90
2018-10-12T02:35:34.893Z,99.90
2018-10-12T02:38:04.091Z,99.90
2018-10-12T02:40:33.324Z,99.90
2018-10-12T02:43:02.501Z,99.90
2018-10-12T02:45:31.724Z,99.90
2018-10-12T02:48:01.001Z,99.90
2018-10-12T02:50:30.303Z,99.90
2018-10-12T02:52:59.473Z,99.90
2018-10-12T02:55:28.650Z,99.90
2018-10-12T02:57:57.794Z,99.90
2018-10-12T03:00:27.070Z,99.90
2018-10-12T03:02:56.214Z,99.90
2018-10-12T03:05:25.570Z,99.90
2018-10-12T03:07:54.802Z,99.90
2018-10-12T03:10:24.038Z,99.90
2018-10-12T03:12:53.143Z,99.90
2018-10-12T03:15:22.179Z,99.90
2018-10-12T03:17:51.503Z,99.90
2018-10-12T03:20:20.681Z,99.90
2018-10-12T03:22:49.808Z,99.90
2018-10-12T03:25:19.128Z,99.90
2018-10-12T03:27:59.414Z,99.90
2018-10-12T03:30:28.635Z,99.90
2018-10-12T03:32:57.942Z,99.90
2018-10-12T03:35:27.329Z,99.90
2018-10-12T03:37:56.541Z,99.90
2018-10-12T03:40:25.891Z,99.90
2018-10-12T03:42:55.228Z,99.90
2018-10-12T03:45:24.542Z,99.90
2018-10-12T03:47:53.833Z,99.90
2018-10-12T03:50:23.151Z,99.90
2018-10-12T03:52:52.352Z,99.90
2018-10-12T03:55:21.493Z,99.90
2018-10-12T03:57:50.634Z,99.90
2018-10-12T04:00:19.842Z,99.90
2018-10-12T04:02:49.025Z,99.90
2018-10-12T04:05:18.385Z,99.90
2018-10-12T04:07:47.650Z,99.90
2018-10-12T04:10:16.843Z,99.90
2018-10-12T04:12:45.970Z,99.90
2018-10-12T04:15:15.148Z,99.90
2018-10-12T04:17:44.319Z,99.90
2018-10-12T04:20:13.548Z,99.90
2018-10-12T04:22:42.853Z,99.90
2018-10-12T04:25:12.013Z,99.90
2018-10-12T04:27:41.157Z,99.90
2018-10-12T04:30:10.443Z,99.90
2018-10-12T04:32:40.317Z,99.90
2018-10-12T04:35:09.429Z,99.90
2018-10-12T04:37:38.944Z,99.90
2018-10-12T04:40:20.910Z,99.90
2018-10-12T04:42:50.328Z,99.90
2018-10-12T04:45:19.693Z,99.90
2018-10-12T04:47:49.014Z,99.90
2018-10-12T04:50:18.238Z,99.90
2018-10-12T04:52:47.518Z,99.90
2018-10-12T04:55:16.653Z,99.90
2018-10-12T04:57:45.829Z,99.90
2018-10-12T05:00:15.151Z,99.90
2018-10-12T05:02:44.456Z,99.90
2018-10-12T05:05:13.714Z,99.90
2018-10-12T05:07:44.891Z,99.90
2018-10-12T05:10:14.346Z,99.90
2018-10-12T05:12:44.806Z,99.90
2018-10-12T05:15:13.993Z,99.90
2018-10-12T05:17:43.238Z,99.90
2018-10-12T05:20:12.556Z,99.90
2018-10-12T05:22:41.762Z,99.90
2018-10-12T05:25:10.946Z,99.90
2018-10-12T05:27:40.171Z,99.90
2018-10-12T05:30:09.557Z,99.90
2018-10-12T05:32:38.638Z,99.90
2018-10-12T05:35:07.803Z,99.90
2018-10-12T05:37:39.309Z,99.90
2018-10-12T05:40:08.540Z,99.90
2018-10-12T05:42:37.783Z,99.90
2018-10-12T05:45:07.793Z,99.90
2018-10-12T05:47:36.918Z,99.90
2018-10-12T05:50:09.918Z,99.90
2018-10-12T05:52:40.630Z,99.90
2018-10-12T05:55:10.172Z,99.90
2018-10-12T05:57:42.054Z,99.90
2018-10-12T06:00:11.947Z,99.90
2018-10-12T06:02:41.251Z,99.90
2018-10-12T06:05:10.595Z,99.90
2018-10-12T06:07:39.750Z,99.90
2018-10-12T06:10:09.088Z,99.90
2018-10-12T06:12:38.209Z,99.90
2018-10-12T06:15:07.465Z,99.90
2018-10-12T06:17:36.613Z,99.90
2018-10-12T06:20:05.850Z,99.90
2018-10-12T06:22:35.023Z,99.90
2018-10-12T06:25:04.291Z,99.90
2018-10-12T06:27:33.559Z,99.90
2018-10-12T06:30:02.742Z,99.90
2018-10-12T06:32:31.893Z,99.90
2018-10-12T06:35:01.097Z,99.90
2018-10-12T06:37:30.445Z,99.90
2018-10-12T06:39:59.630Z,99.90
2018-10-12T06:42:28.841Z,99.90
2018-10-12T06:44:57.988Z,99.90
2018-10-12T06:47:27.244Z,99.90
2018-10-12T06:49:56.414Z,99.90
2018-10-12T06:52:25.522Z,99.90
2018-10-12T06:54:54.649Z,99.90
2018-10-12T06:57:23.830Z,99.90
2018-10-12T06:59:53.082Z,99.90
2018-10-12T07:02:22.413Z,99.90
2018-10-12T07:04:52.110Z,99.90
2018-10-12T07:07:21.408Z,99.90
2018-10-12T07:09:50.559Z,99.90
2018-10-12T07:12:19.939Z,99.90
2018-10-12T07:14:49.002Z,99.90
2018-10-12T07:17:18.213Z,99.90
2018-10-12T07:19:47.386Z,99.90
2018-10-12T07:22:16.626Z,99.90
2018-10-12T07:24:45.937Z,99.90
2018-10-12T07:27:15.313Z,99.90
2018-10-12T07:29:44.468Z,99.90
2018-10-12T07:32:13.729Z,99.90
2018-10-12T07:34:43.040Z,99.90
2018-10-12T07:37:12.425Z,99.90
2018-10-12T07:39:41.630Z,99.90
2018-10-12T07:42:10.714Z,99.90
2018-10-12T07:44:39.894Z,99.90
2018-10-12T07:47:09.096Z,99.90
2018-10-12T07:49:38.237Z,99.90
2018-10-12T07:52:07.444Z,99.90
2018-10-12T07:54:36.717Z,99.90
2018-10-12T07:57:11.735Z,99.90
2018-10-12T07:59:42.090Z,99.90
2018-10-12T08:02:11.950Z,99.90
2018-10-12T08:04:41.969Z,99.90
2018-10-12T08:07:12.159Z,99.90
2018-10-12T08:09:41.581Z,99.90
2018-10-12T08:12:10.694Z,99.90
2018-10-12T08:14:39.835Z,99.90
2018-10-12T08:17:09.099Z,99.90
2018-10-12T08:19:38.343Z,99.90
2018-10-12T08:22:07.706Z,99.90
2018-10-12T08:24:37.071Z,99.90
2018-10-12T08:27:06.638Z,99.90
2018-10-12T08:29:35.707Z,99.90
2018-10-12T08:32:05.033Z,99.90
2018-10-12T08:34:34.839Z,99.90
2018-10-12T08:37:03.951Z,99.90
2018-10-12T08:39:33.178Z,99.90
2018-10-12T08:42:02.460Z,99.90
2018-10-12T08:44:31.640Z,99.90
2018-10-12T08:47:00.979Z,99.90
2018-10-12T08:49:30.082Z,99.90
2018-10-12T08:51:59.222Z,99.60
2018-10-12T08:54:28.441Z,99.00
2018-10-12T08:56:57.672Z,98.40
2018-10-12T08:59:26.982Z,96.60
2018-10-12T09:01:56.142Z,95.00
2018-10-12T09:04:25.278Z,93.50
2018-10-12T09:06:54.307Z,92.20
2018-10-12T09:09:23.581Z,91.00
2018-10-12T09:11:52.797Z,88.90
2018-10-12T09:14:21.945Z,85.80
2018-10-12T09:16:51.158Z,84.10
2018-10-12T09:19:20.308Z,81.00
2018-10-12T09:21:49.557Z,79.30
2018-10-12T09:24:18.804Z,76.70
2018-10-12T09:26:48.007Z,74.80
2018-10-12T09:29:17.822Z,74.30
2018-10-12T09:31:47.100Z,73.50
2018-10-12T09:34:16.277Z,71.50
2018-10-12T09:36:45.641Z,70.10
2018-10-12T09:39:14.747Z,69.70
2018-10-12T09:41:43.997Z,69.90
2018-10-12T09:44:13.225Z,67.50
2018-10-12T09:46:43.237Z,66.40
2018-10-12T09:49:12.482Z,66.00
2018-10-12T09:51:41.656Z,65.40
2018-10-12T09:54:11.303Z,63.90
2018-10-12T09:56:40.493Z,62.90
2018-10-12T09:59:09.843Z,62.00
2018-10-12T10:01:44.346Z,61.80
2018-10-12T10:04:18.383Z,60.50
2018-10-12T10:06:47.542Z,61.10
2018-10-12T10:09:16.763Z,59.10
2018-10-12T10:11:46.094Z,57.70
2018-10-12T10:14:15.314Z,56.20
2018-10-12T10:16:44.522Z,54.60
2018-10-12T10:19:13.792Z,53.20
2018-10-12T10:21:42.913Z,52.50
2018-10-12T10:24:12.058Z,50.90
2018-10-12T10:26:41.410Z,49.50
2018-10-12T10:29:10.629Z,48.70
2018-10-12T10:31:39.898Z,47.60
2018-10-12T10:34:09.227Z,47.10
2018-10-12T10:36:38.415Z,46.30
2018-10-12T10:39:09.603Z,46.00
2018-10-12T10:41:38.766Z,45.80
2018-10-12T10:44:08.057Z,44.80
2018-10-12T10:46:37.321Z,44.60
2018-10-12T10:49:06.781Z,43.90
2018-10-12T10:51:35.997Z,43.40
2018-10-12T10:54:05.205Z,43.20
2018-10-12T10:56:34.437Z,45.00
2018-10-12T10:59:03.536Z,42.80
2018-10-12T11:01:32.618Z,42.10
2018-10-12T11:04:01.826Z,42.80
2018-10-12T11:06:31.095Z,41.70
2018-10-12T11:09:00.390Z,41.60
2018-10-12T11:11:29.645Z,41.80
2018-10-12T11:13:58.857Z,40.60
2018-10-12T11:16:27.988Z,39.80
2018-10-12T11:18:57.214Z,40.00
2018-10-12T11:21:26.387Z,38.70
2018-10-12T11:23:55.595Z,39.50
2018-10-12T11:26:24.874Z,39.60
2018-10-12T11:28:54.174Z,39.40
2018-10-12T11:31:23.482Z,38.70
2018-10-12T11:33:52.658Z,38.60
2018-10-12T11:36:22.850Z,38.00
2018-10-12T11:38:52.086Z,38.20
2018-10-12T11:41:21.351Z,37.80
2018-10-12T11:43:50.649Z,37.40
2018-10-12T11:46:19.881Z,36.60
2018-10-12T11:48:49.065Z,37.10
2018-10-12T11:51:18.441Z,37.10
2018-10-12T11:53:47.654Z,37.40
2018-10-12T11:56:16.894Z,37.30
2018-10-12T11:58:46.166Z,36.50
2018-10-12T12:01:15.354Z,36.50
2018-10-12T12:03:44.558Z,35.60
2018-10-12T12:06:13.838Z,36.00
2018-10-12T12:08:43.070Z,36.50
2018-10-12T12:11:12.157Z,36.30
2018-10-12T12:13:41.974Z,36.00
2018-10-12T12:16:11.142Z,35.60
2018-10-12T12:18:40.347Z,35.80
2018-10-12T12:21:09.529Z,36.50
2018-10-12T12:23:38.641Z,36.20
2018-10-12T12:26:07.958Z,35.60
2018-10-12T12:28:37.041Z,35.50
2018-10-12T12:31:06.378Z,35.10
2018-10-12T12:33:35.542Z,36.60
2018-10-12T12:36:06.302Z,35.60
2018-10-12T12:38:35.420Z,35.50
2018-10-12T12:41:04.706Z,35.10
2018-10-12T12:43:33.901Z,35.60
2018-10-12T12:46:03.100Z,34.70
2018-10-12T12:48:33.210Z,36.40
2018-10-12T12:51:02.027Z,34.70
2018-10-12T12:53:31.373Z,34.80
2018-10-12T12:56:00.544Z,34.90
2018-10-12T12:58:29.626Z,34.60
2018-10-12T13:00:58.745Z,35.40
2018-10-12T13:03:27.850Z,34.20
2018-10-12T13:05:57.222Z,35.30
2018-10-12T13:08:27.282Z,34.90
2018-10-12T13:10:56.485Z,35.10
2018-10-12T13:13:25.637Z,35.50
2018-10-12T13:15:54.844Z,36.70
2018-10-12T13:18:24.071Z,36.90
2018-10-12T13:20:53.274Z,36.80
2018-10-12T13:23:22.477Z,37.10
2018-10-12T13:25:51.783Z,37.40
2018-10-12T13:28:20.853Z,37.50
2018-10-12T13:30:50.074Z,37.90
2018-10-12T13:33:19.281Z,38.20
2018-10-12T13:35:48.494Z,38.50
2018-10-12T13:38:17.776Z,38.90
2018-10-12T13:40:47.021Z,38.40
2018-10-12T13:43:16.161Z,38.30
2018-10-12T13:45:45.490Z,38.60
2018-10-12T13:48:14.709Z,38.90
2018-10-12T13:50:44.009Z,39.10
2018-10-12T13:53:13.176Z,38.70
2018-10-12T13:55:42.270Z,38.70
2018-10-12T13:58:11.495Z,39.20
2018-10-12T14:00:40.645Z,39.40
2018-10-12T14:03:09.911Z,40.10
2018-10-12T14:05:39.184Z,39.40
2018-10-12T14:08:08.613Z,39.80
2018-10-12T14:10:37.831Z,40.10
2018-10-12T14:13:07.239Z,40.30
2018-10-12T14:15:36.601Z,40.70
2018-10-12T14:18:05.826Z,40.80
2018-10-12T14:20:35.004Z,41.50
2018-10-12T14:23:04.046Z,42.00
2018-10-12T14:25:33.223Z,41.80
2018-10-12T14:28:02.452Z,42.10
2018-10-12T14:30:31.653Z,42.50
2018-10-12T14:33:01.148Z,42.60
2018-10-12T14:35:30.203Z,43.10
2018-10-12T14:37:59.837Z,43.40
2018-10-12T14:40:29.110Z,44.10
2018-10-12T14:42:58.321Z,44.90
2018-10-12T14:45:27.556Z,44.70
2018-10-12T14:47:56.714Z,45.20
2018-10-12T14:50:25.861Z,45.20
2018-10-12T14:52:55.027Z,45.50
2018-10-12T14:55:25.003Z,45.40
2018-10-12T14:57:54.166Z,46.00
2018-10-12T15:00:23.403Z,46.30
2018-10-12T15:02:52.664Z,46.50
2018-10-12T15:05:21.848Z,47.00
2018-10-12T15:07:51.369Z,46.70
2018-10-12T15:10:20.475Z,47.20
2018-10-12T15:12:49.822Z,47.20
2018-10-12T15:15:25.937Z,47.10
2018-10-12T15:17:56.023Z,47.50
2018-10-12T15:20:25.256Z,47.60
2018-10-12T15:22:54.641Z,47.80
2018-10-12T15:25:23.997Z,48.20
2018-10-12T15:27:53.044Z,48.30
2018-10-12T15:30:22.319Z,48.70
2018-10-12T15:32:51.588Z,48.90
2018-10-12T15:35:20.779Z,49.20
2018-10-12T15:37:50.054Z,49.50
2018-10-12T15:40:19.298Z,49.70
2018-10-12T15:42:48.685Z,50.00
2018-10-12T15:45:17.734Z,50.30
2018-10-12T15:47:47.022Z,50.60
2018-10-12T15:50:16.226Z,51.40
2018-10-12T15:52:45.498Z,51.60
2018-10-12T15:55:14.709Z,51.70
2018-10-12T15:57:43.821Z,52.20
2018-10-12T16:00:13.066Z,52.00
2018-10-12T16:02:42.277Z,52.10
2018-10-12T16:05:11.497Z,52.40
2018-10-12T16:07:40.618Z,52.80
2018-10-12T16:10:09.782Z,52.90
2018-10-12T16:12:39.057Z,53.10
2018-10-12T16:15:08.322Z,53.30
2018-10-12T16:17:37.442Z,53.40
2018-10-12T16:20:06.635Z,53.60
2018-10-12T16:22:35.966Z,54.50
2018-10-12T16:26:15.433Z,54.50
2018-10-12T16:28:44.797Z,54.80
2018-10-12T16:31:14.101Z,55.10
2018-10-12T16:33:43.189Z,55.60
2018-10-12T16:36:12.487Z,55.60
2018-10-12T16:38:41.746Z,55.80
2018-10-12T16:41:11.068Z,56.10
2018-10-12T16:43:40.297Z,56.10
2018-10-12T16:46:09.548Z,56.80
2018-10-12T16:48:38.719Z,56.60
2018-10-12T16:51:08.046Z,56.80
2018-10-12T16:53:37.258Z,57.20
2018-10-12T16:56:06.397Z,57.50
2018-10-12T16:58:35.662Z,57.90
2018-10-12T17:01:04.882Z,57.40
2018-10-12T17:03:34.146Z,58.00
2018-10-12T17:06:04.407Z,58.30
2018-10-12T17:08:33.677Z,58.90
2018-10-12T17:11:07.372Z,58.70
2018-10-12T17:13:36.821Z,58.70
2018-10-12T17:16:06.271Z,58.80
2018-10-12T17:18:35.460Z,59.10
2018-10-12T17:21:04.645Z,59.30
2018-10-12T17:23:33.854Z,59.60
2018-10-12T17:26:03.033Z,59.80
2018-10-12T17:28:33.229Z,59.90
2018-10-12T17:31:02.449Z,60.20
2018-10-12T17:33:31.829Z,60.30
2018-10-12T17:36:00.954Z,60.60
2018-10-12T17:38:30.234Z,60.70
2018-10-12T17:41:04.064Z,60.90
2018-10-12T17:43:33.262Z,61.10
2018-10-12T17:46:02.457Z,61.50
2018-10-12T17:48:31.614Z,61.90
2018-10-12T17:51:00.944Z,62.00
2018-10-12T17:53:30.166Z,62.20
2018-10-12T17:55:59.366Z,62.50
2018-10-12T17:58:28.554Z,62.80
2018-10-12T18:00:57.818Z,63.70
2018-10-12T18:03:27.039Z,64.00
2018-10-12T18:05:56.778Z,64.00
2018-10-12T18:08:25.962Z,64.70
2018-10-12T18:10:55.254Z,64.80
2018-10-12T18:13:24.621Z,65.00
2018-10-12T18:15:53.892Z,65.40
2018-10-12T18:18:23.083Z,65.80
2018-10-12T18:20:52.243Z,66.00
2018-10-12T18:23:21.730Z,66.10
2018-10-12T18:25:51.016Z,66.60
2018-10-12T18:28:20.261Z,66.70
2018-10-12T18:30:49.354Z,67.00
2018-10-12T18:33:18.579Z,67.50
2018-10-12T18:35:47.748Z,68.70
2018-10-12T18:38:16.931Z,69.20
2018-10-12T18:40:46.409Z,69.60
2018-10-12T18:43:15.724Z,70.20
2018-10-12T18:45:44.929Z,71.20
2018-10-12T18:48:14.145Z,72.70
2018-10-12T18:50:43.376Z,72.60
2018-10-12T18:53:12.487Z,73.50
2018-10-12T18:55:41.688Z,73.30
2018-10-12T18:58:10.896Z,73.30
2018-10-12T19:00:41.273Z,73.40
2018-10-12T19:03:10.490Z,74.00
2018-10-12T19:05:39.673Z,75.50
2018-10-12T19:08:08.965Z,74.50
2018-10-12T19:10:38.341Z,75.10
2018-10-12T19:13:07.523Z,75.40
2018-10-12T19:15:36.694Z,76.40
2018-10-12T19:18:05.891Z,77.30
2018-10-12T19:20:35.135Z,77.90
2018-10-12T19:23:04.322Z,78.60
2018-10-12T19:25:33.486Z,79.50
2018-10-12T19:28:02.622Z,80.60
2018-10-12T19:30:31.932Z,80.20
2018-10-12T19:33:01.303Z,81.40
2018-10-12T19:35:30.641Z,82.30
2018-10-12T19:37:59.817Z,82.30
2018-10-12T19:40:28.959Z,82.30
2018-10-12T19:42:58.138Z,83.80
2018-10-12T19:45:27.441Z,83.80
2018-10-12T19:47:56.642Z,83.40
2018-10-12T19:50:25.970Z,84.00
2018-10-12T19:52:55.223Z,84.20
2018-10-12T19:55:24.519Z,84.90
2018-10-12T19:57:53.718Z,85.60
2018-10-12T20:00:22.911Z,85.40
2018-10-12T20:02:51.960Z,85.90
2018-10-12T20:05:21.402Z,86.40
2018-10-12T20:07:50.684Z,87.00
2018-10-12T20:10:20.043Z,87.20
2018-10-12T20:12:49.110Z,87.40
2018-10-12T20:15:18.350Z,88.10
2018-10-12T20:17:47.705Z,88.60
2018-10-12T20:20:16.837Z,90.30
2018-10-12T20:22:46.869Z,90.20
2018-10-12T20:25:16.105Z,90.80
2018-10-12T20:27:45.306Z,90.70
2018-10-12T20:30:14.553Z,90.70
2018-10-12T20:32:43.733Z,91.00
2018-10-12T20:35:12.961Z,91.80
2018-10-12T20:37:42.120Z,91.60
2018-10-12T20:40:11.362Z,92.10
2018-10-12T20:42:40.697Z,92.70
2018-10-12T20:45:10.023Z,93.00
2018-10-12T20:47:39.350Z,92.70
2018-10-12T20:50:08.530Z,92.90
2018-10-12T20:52:37.810Z,93.20
2018-10-12T20:55:07.070Z,93.20
2018-10-12T20:57:40.362Z,93.20
2018-10-12T21:00:10.514Z,93.50
2018-10-12T21:02:39.747Z,94.10
2018-10-12T21:05:09.029Z,94.00
2018-10-12T21:07:38.182Z,94.80
2018-10-12T21:10:07.690Z,94.80
2018-10-12T21:12:36.930Z,95.50
2018-10-12T21:15:06.274Z,95.70
2018-10-12T21:17:36.113Z,95.70
2018-10-12T21:20:05.963Z,97.10
2018-10-12T21:22:35.277Z,96.90
2018-10-12T21:25:04.558Z,97.10
2018-10-12T21:27:33.735Z,97.40
2018-10-12T21:30:03.014Z,97.80
2018-10-12T21:32:32.305Z,98.50
2018-10-12T21:35:01.458Z,98.60
2018-10-12T21:37:30.771Z,99.10
2018-10-12T21:39:59.827Z,98.60
2018-10-12T21:42:29.025Z,98.70
2018-10-12T21:44:58.356Z,99.90
2018-10-12T21:47:27.499Z,99.80
2018-10-12T21:49:56.515Z,99.90
2018-10-12T21:52:25.789Z,99.70
2018-10-12T21:54:54.953Z,99.80
2018-10-12T21:57:24.127Z,99.90
2018-10-12T21:59:53.377Z,99.90
2018-10-12T22:02:22.617Z,99.90
2018-10-12T22:04:51.774Z,99.90
2018-10-12T22:07:20.944Z,99.90
2018-10-12T22:09:50.160Z,99.90
2018-10-12T22:12:19.967Z,99.90
2018-10-12T22:14:49.146Z,99.90
2018-10-12T22:17:18.266Z,99.90
2018-10-12T22:19:47.378Z,99.90
2018-10-12T22:22:16.690Z,99.90
2018-10-12T22:24:45.786Z,99.90
2018-10-12T22:27:15.167Z,99.90
2018-10-12T22:29:44.429Z,99.90
2018-10-12T22:32:13.624Z,99.90
2018-10-12T22:34:42.666Z,99.90
2018-10-12T22:37:12.025Z,99.90
2018-10-12T22:39:43.088Z,99.90
2018-10-12T22:42:13.552Z,99.90
2018-10-12T22:44:42.801Z,99.90
2018-10-12T22:47:12.029Z,99.90
2018-10-12T22:49:41.277Z,99.90
2018-10-12T22:52:10.515Z,99.90
2018-10-12T22:54:39.666Z,99.90
2018-10-12T22:57:08.926Z,99.90
2018-10-12T22:59:38.151Z,99.90
2018-10-12T23:02:07.578Z,99.90
2018-10-12T23:04:36.838Z,99.90
2018-10-12T23:07:05.999Z,99.90
2018-10-12T23:09:35.262Z,99.90
2018-10-12T23:12:04.576Z,99.90
2018-10-12T23:14:33.810Z,99.90
2018-10-12T23:17:02.885Z,99.90
2018-10-12T23:19:32.046Z,99.90
2018-10-12T23:22:01.275Z,99.90
2018-10-12T23:24:30.426Z,99.90
2018-10-12T23:26:59.597Z,99.90
2018-10-12T23:29:28.749Z,99.90
2018-10-12T23:31:58.026Z,99.90
2018-10-12T23:34:27.150Z,99.90
2018-10-12T23:36:56.258Z,99.90
2018-10-12T23:39:25.522Z,99.90
2018-10-12T23:41:54.689Z,99.90
2018-10-12T23:44:24.498Z,99.90
2018-10-12T23:46:53.729Z,99.90
2018-10-12T23:49:22.986Z,99.90
2018-10-12T23:51:52.290Z,99.90
2018-10-12T23:54:21.337Z,99.90
2018-10-12T23:56:50.634Z,99.90
2018-10-12T23:59:19.959Z,99.90
